sensor_id;sensor_type;location;lat;lon;timestamp;pressure;altitude;pressure_sealevel;temperature;humidity
42003;BME280;27693;50.506;30.832;2023-05-14T00:00:08;100376.44;;;16.73;40.39
42003;BME280;27693;50.506;30.832;2023-05-14T00:01:11;100379.63;;;16.79;40.40
42003;BME280;27693;50.506;30.832;2023-05-14T00:02:13;100380.77;;;16.74;40.19
42003;BME280;27693;50.506;30.832;2023-05-14T00:03:16;100381.31;;;16.80;40.13
42003;BME280;27693;50.506;30.832;2023-05-14T00:04:18;100375.68;;;16.86;40.10
42003;BME280;27693;50.506;30.832;2023-05-14T00:05:21;100384.12;;;16.91;40.01
42003;BME280;27693;50.506;30.832;2023-05-14T00:06:25;100383.11;;;16.93;39.89
42003;BME280;27693;50.506;30.832;2023-05-14T00:07:29;100382.28;;;16.93;39.84
42003;BME280;27693;50.506;30.832;2023-05-14T00:08:31;100382.42;;;16.90;40.24
42003;BME280;27693;50.506;30.832;2023-05-14T00:09:34;100382.42;;;16.90;40.24
42003;BME280;27693;50.506;30.832;2023-05-14T00:10:38;100384.50;;;16.85;40.08
42003;BME280;27693;50.506;30.832;2023-05-14T00:11:40;100393.14;;;16.87;39.97
42003;BME280;27693;50.506;30.832;2023-05-14T00:12:42;100393.14;;;16.87;40.05
42003;BME280;27693;50.506;30.832;2023-05-14T00:13:45;100387.67;;;16.90;39.99
42003;BME280;27693;50.506;30.832;2023-05-14T00:14:47;100388.37;;;16.93;39.89
42003;BME280;27693;50.506;30.832;2023-05-14T00:15:50;100382.28;;;16.93;39.78
42003;BME280;27693;50.506;30.832;2023-05-14T00:16:52;100379.72;;;16.91;39.85
42003;BME280;27693;50.506;30.832;2023-05-14T00:17:55;100385.66;;;16.95;40.06
42003;BME280;27693;50.506;30.832;2023-05-14T00:18:57;100389.78;;;16.99;40.05
42003;BME280;27693;50.506;30.832;2023-05-14T00:20:00;100390.33;;;17.04;39.80
42003;BME280;27693;50.506;30.832;2023-05-14T00:21:02;100393.72;;;17.06;39.84
42003;BME280;27693;50.506;30.832;2023-05-14T00:22:05;100392.58;;;17.11;41.02
42003;BME280;27693;50.506;30.832;2023-05-14T00:23:07;100389.02;;;16.97;39.98
42003;BME280;27693;50.506;30.832;2023-05-14T00:24:09;100387.61;;;16.91;40.02
42003;BME280;27693;50.506;30.832;2023-05-14T00:25:12;100390.41;;;16.88;40.19
42003;BME280;27693;50.506;30.832;2023-05-14T00:26:14;100387.13;;;16.85;40.14
42003;BME280;27693;50.506;30.832;2023-05-14T00:27:18;100390.30;;;16.90;40.14
42003;BME280;27693;50.506;30.832;2023-05-14T00:28:20;100389.23;;;16.94;41.23
42003;BME280;27693;50.506;30.832;2023-05-14T00:29:23;100393.89;;;17.03;40.19
42003;BME280;27693;50.506;30.832;2023-05-14T00:30:25;100393.89;;;17.03;40.19
42003;BME280;27693;50.506;30.832;2023-05-14T00:31:28;100394.10;;;17.00;40.60
42003;BME280;27693;50.506;30.832;2023-05-14T00:32:31;100399.53;;;16.97;40.27
42003;BME280;27693;50.506;30.832;2023-05-14T00:33:33;100401.98;;;17.00;40.20
42003;BME280;27693;50.506;30.832;2023-05-14T00:34:36;100398.32;;;17.03;40.38
42003;BME280;27693;50.506;30.832;2023-05-14T00:35:38;100394.48;;;16.94;40.50
42003;BME280;27693;50.506;30.832;2023-05-14T00:36:41;100391.75;;;16.96;40.48
42003;BME280;27693;50.506;30.832;2023-05-14T00:37:43;100402.37;;;16.94;40.66
42003;BME280;27693;50.506;30.832;2023-05-14T00:38:45;100392.58;;;16.96;42.25
42003;BME280;27693;50.506;30.832;2023-05-14T00:39:47;100391.86;;;16.94;41.02
42003;BME280;27693;50.506;30.832;2023-05-14T00:40:50;100396.83;;;16.99;40.55
42003;BME280;27693;50.506;30.832;2023-05-14T00:41:53;100393.89;;;17.03;40.71
42003;BME280;27693;50.506;30.832;2023-05-14T00:42:55;100393.82;;;17.05;41.13
42003;BME280;27693;50.506;30.832;2023-05-14T00:43:58;100393.17;;;17.01;41.14
42003;BME280;27693;50.506;30.832;2023-05-14T00:45:00;100390.54;;;17.01;41.29
42003;BME280;27693;50.506;30.832;2023-05-14T00:46:02;100391.65;;;16.97;41.22
42003;BME280;27693;50.506;30.832;2023-05-14T00:47:05;100392.80;;;16.93;41.54
42003;BME280;27693;50.506;30.832;2023-05-14T00:48:08;100394.62;;;16.91;41.71
42003;BME280;27693;50.506;30.832;2023-05-14T00:49:10;100385.05;;;16.90;41.81
42003;BME280;27693;50.506;30.832;2023-05-14T00:50:14;100386.19;;;16.86;41.94
42003;BME280;27693;50.506;30.832;2023-05-14T00:51:17;100384.22;;;16.75;42.23
42003;BME280;27693;50.506;30.832;2023-05-14T00:52:20;100385.25;;;16.72;42.52
42003;BME280;27693;50.506;30.832;2023-05-14T00:53:23;100382.07;;;16.67;42.56
42003;BME280;27693;50.506;30.832;2023-05-14T00:54:26;100377.82;;;16.65;42.90
42003;BME280;27693;50.506;30.832;2023-05-14T00:55:29;100381.69;;;16.59;43.34
42003;BME280;27693;50.506;30.832;2023-05-14T00:56:34;100383.16;;;16.49;43.86
42003;BME280;27693;50.506;30.832;2023-05-14T00:57:36;100375.85;;;16.39;44.10
42003;BME280;27693;50.506;30.832;2023-05-14T00:58:38;100382.97;;;16.37;44.25
42003;BME280;27693;50.506;30.832;2023-05-14T00:59:41;100378.48;;;16.39;44.31
42003;BME280;27693;50.506;30.832;2023-05-14T01:00:44;100374.92;;;16.40;44.33
42003;BME280;27693;50.506;30.832;2023-05-14T01:01:46;100375.46;;;16.31;44.13
42003;BME280;27693;50.506;30.832;2023-05-14T01:02:49;100377.16;;;16.32;44.47
42003;BME280;27693;50.506;30.832;2023-05-14T01:03:52;100387.66;;;16.32;44.31
42003;BME280;27693;50.506;30.832;2023-05-14T01:04:56;100377.84;;;16.05;45.48
42003;BME280;27693;50.506;30.832;2023-05-14T01:09:06;100390.98;;;15.89;45.77
42003;BME280;27693;50.506;30.832;2023-05-14T01:10:16;100374.05;;;15.95;45.86
42003;BME280;27693;50.506;30.832;2023-05-14T01:11:24;100378.68;;;16.06;45.64
42003;BME280;27693;50.506;30.832;2023-05-14T01:16:06;100380.41;;;16.21;41.57
42003;BME280;27693;50.506;30.832;2023-05-14T01:17:11;100385.86;;;16.33;41.24
42003;BME280;27693;50.506;30.832;2023-05-14T01:18:17;100382.30;;;16.34;41.31
42003;BME280;27693;50.506;30.832;2023-05-14T01:19:28;100373.59;;;16.33;40.61
42003;BME280;27693;50.506;30.832;2023-05-14T01:20:26;100377.72;;;16.37;41.10
42003;BME280;27693;50.506;30.832;2023-05-14T01:21:36;100383.63;;;16.41;41.27
42003;BME280;27693;50.506;30.832;2023-05-14T01:22:41;100377.25;;;16.45;40.01
42003;BME280;27693;50.506;30.832;2023-05-14T01:23:43;100381.47;;;16.48;39.84
42003;BME280;27693;50.506;30.832;2023-05-14T01:24:46;100382.99;;;16.52;40.07
42003;BME280;27693;50.506;30.832;2023-05-14T01:25:49;100379.23;;;16.56;39.24
42003;BME280;27693;50.506;30.832;2023-05-14T01:26:52;100389.56;;;16.59;39.79
42003;BME280;27693;50.506;30.832;2023-05-14T01:28:22;100379.06;;;16.59;39.95
42003;BME280;27693;50.506;30.832;2023-05-14T01:29:25;100393.40;;;16.53;40.12
42003;BME280;27693;50.506;30.832;2023-05-14T01:31:42;100389.94;;;16.53;40.92
42003;BME280;27693;50.506;30.832;2023-05-14T01:32:47;100386.55;;;16.51;41.06
42003;BME280;27693;50.506;30.832;2023-05-14T01:33:51;100391.04;;;16.49;41.40
42003;BME280;27693;50.506;30.832;2023-05-14T01:34:57;100388.78;;;16.42;41.42
42003;BME280;27693;50.506;30.832;2023-05-14T01:36:02;100388.05;;;16.40;41.53
42003;BME280;27693;50.506;30.832;2023-05-14T01:37:06;100394.03;;;16.42;41.71
42003;BME280;27693;50.506;30.832;2023-05-14T01:38:13;100391.78;;;16.36;41.93
42003;BME280;27693;50.506;30.832;2023-05-14T01:39:16;100383.34;;;16.31;42.27
42003;BME280;27693;50.506;30.832;2023-05-14T01:40:20;100386.63;;;16.35;42.62
42003;BME280;27693;50.506;30.832;2023-05-14T01:41:24;100386.99;;;16.28;43.16
42003;BME280;27693;50.506;30.832;2023-05-14T01:42:28;100386.13;;;16.28;43.58
42003;BME280;27693;50.506;30.832;2023-05-14T01:43:31;100382.41;;;16.32;41.32
42003;BME280;27693;50.506;30.832;2023-05-14T01:44:34;100382.06;;;16.53;39.32
42003;BME280;27693;50.506;30.832;2023-05-14T01:45:37;100378.20;;;16.73;37.99
42003;BME280;27693;50.506;30.832;2023-05-14T01:46:40;100387.53;;;16.93;37.31
42003;BME280;27693;50.506;30.832;2023-05-14T01:47:43;100374.69;;;17.30;34.74
42003;BME280;27693;50.506;30.832;2023-05-14T01:48:46;100378.98;;;17.46;34.38
42003;BME280;27693;50.506;30.832;2023-05-14T01:49:49;100380.48;;;17.50;34.26
42003;BME280;27693;50.506;30.832;2023-05-14T01:50:51;100383.84;;;17.52;34.07
42003;BME280;27693;50.506;30.832;2023-05-14T01:51:55;100386.83;;;17.60;33.52
42003;BME280;27693;50.506;30.832;2023-05-14T01:52:57;100381.16;;;17.66;33.42
42003;BME280;27693;50.506;30.832;2023-05-14T01:53:59;100381.92;;;17.68;33.51
42003;BME280;27693;50.506;30.832;2023-05-14T01:55:02;100386.24;;;17.69;33.46
42003;BME280;27693;50.506;30.832;2023-05-14T01:56:06;100380.77;;;17.72;33.05
42003;BME280;27693;50.506;30.832;2023-05-14T01:57:08;100383.21;;;17.76;33.08
42003;BME280;27693;50.506;30.832;2023-05-14T01:58:11;100383.96;;;17.78;32.88
42003;BME280;27693;50.506;30.832;2023-05-14T01:59:13;100384.61;;;17.81;34.85
42003;BME280;27693;50.506;30.832;2023-05-14T02:00:16;100377.32;;;17.85;33.17
42003;BME280;27693;50.506;30.832;2023-05-14T02:01:19;100365.85;;;17.86;34.57
42003;BME280;27693;50.506;30.832;2023-05-14T02:02:22;100374.69;;;17.85;33.29
42003;BME280;27693;50.506;30.832;2023-05-14T02:03:24;100367.66;;;17.85;33.07
42003;BME280;27693;50.506;30.832;2023-05-14T02:04:29;100376.37;;;17.86;32.82
42003;BME280;27693;50.506;30.832;2023-05-14T02:05:31;100363.97;;;17.88;32.95
42003;BME280;27693;50.506;30.832;2023-05-14T02:06:34;100369.23;;;17.88;33.29
42003;BME280;27693;50.506;30.832;2023-05-14T02:07:37;100361.23;;;17.89;33.05
42003;BME280;27693;50.506;30.832;2023-05-14T02:08:40;100374.31;;;17.91;33.42
42003;BME280;27693;50.506;30.832;2023-05-14T02:09:42;100363.67;;;17.93;33.86
42003;BME280;27693;50.506;30.832;2023-05-14T02:10:45;100362.66;;;17.95;33.49
42003;BME280;27693;50.506;30.832;2023-05-14T02:11:47;100361.04;;;17.93;33.21
42003;BME280;27693;50.506;30.832;2023-05-14T02:12:49;100363.97;;;17.88;33.52
42003;BME280;27693;50.506;30.832;2023-05-14T02:13:52;100365.43;;;17.79;34.14
42003;BME280;27693;50.506;30.832;2023-05-14T02:14:56;100371.52;;;17.80;34.16
42003;BME280;27693;50.506;30.832;2023-05-14T02:15:58;100370.05;;;17.76;34.39
42003;BME280;27693;50.506;30.832;2023-05-14T02:17:01;100365.08;;;17.71;34.70
42003;BME280;27693;50.506;30.832;2023-05-14T02:18:04;100369.52;;;17.70;34.83
42003;BME280;27693;50.506;30.832;2023-05-14T02:19:07;100368.77;;;17.68;34.94
42003;BME280;27693;50.506;30.832;2023-05-14T02:20:10;100367.26;;;17.64;34.93
42003;BME280;27693;50.506;30.832;2023-05-14T02:21:13;100365.78;;;17.60;35.07
42003;BME280;27693;50.506;30.832;2023-05-14T02:22:15;100372.92;;;17.58;35.92
42003;BME280;27693;50.506;30.832;2023-05-14T02:23:17;100364.59;;;17.51;36.53
42003;BME280;27693;50.506;30.832;2023-05-14T02:24:20;100365.64;;;17.49;37.06
42003;BME280;27693;50.506;30.832;2023-05-14T02:25:22;100361.91;;;17.38;37.60
42003;BME280;27693;50.506;30.832;2023-05-14T02:26:25;100364.82;;;17.34;38.46
42003;BME280;27693;50.506;30.832;2023-05-14T02:27:27;100370.04;;;17.21;39.21
42003;BME280;27693;50.506;30.832;2023-05-14T02:28:30;100356.91;;;16.77;39.95
42003;BME280;27693;50.506;30.832;2023-05-14T02:29:32;100356.91;;;16.77;39.95
42003;BME280;27693;50.506;30.832;2023-05-14T02:30:34;100372.87;;;16.74;40.38
42003;BME280;27693;50.506;30.832;2023-05-14T02:31:36;100362.37;;;16.74;40.66
42003;BME280;27693;50.506;30.832;2023-05-14T02:32:39;100366.86;;;16.72;40.71
42003;BME280;27693;50.506;30.832;2023-05-14T02:33:42;100364.41;;;16.69;41.09
42003;BME280;27693;50.506;30.832;2023-05-14T02:34:44;100375.85;;;16.68;41.00
42003;BME280;27693;50.506;30.832;2023-05-14T02:35:47;100374.26;;;16.66;41.16
42003;BME280;27693;50.506;30.832;2023-05-14T02:36:49;100366.31;;;16.67;40.99
42003;BME280;27693;50.506;30.832;2023-05-14T02:37:52;100371.19;;;16.73;41.08
42003;BME280;27693;50.506;30.832;2023-05-14T02:38:57;100366.86;;;16.72;41.04
42003;BME280;27693;50.506;30.832;2023-05-14T02:40:00;100369.49;;;16.72;40.83
42003;BME280;27693;50.506;30.832;2023-05-14T02:41:03;100371.19;;;16.73;40.29
42003;BME280;27693;50.506;30.832;2023-05-14T02:42:06;100364.62;;;16.81;39.71
42003;BME280;27693;50.506;30.832;2023-05-14T02:43:09;100364.96;;;16.89;39.95
42003;BME280;27693;50.506;30.832;2023-05-14T02:44:11;100361.40;;;16.90;39.43
42003;BME280;27693;50.506;30.832;2023-05-14T02:45:14;100368.20;;;16.94;39.26
42003;BME280;27693;50.506;30.832;2023-05-14T02:46:16;100363.50;;;16.99;38.87
42003;BME280;27693;50.506;30.832;2023-05-14T02:47:19;100368.58;;;17.02;38.73
42003;BME280;27693;50.506;30.832;2023-05-14T02:48:21;100368.19;;;17.08;39.11
42003;BME280;27693;50.506;30.832;2023-05-14T02:49:24;100367.98;;;17.12;39.56
42003;BME280;27693;50.506;30.832;2023-05-14T02:50:27;100373.34;;;17.10;39.70
42003;BME280;27693;50.506;30.832;2023-05-14T02:51:30;100365.35;;;17.12;39.79
42003;BME280;27693;50.506;30.832;2023-05-14T02:52:33;100368.52;;;17.17;39.98
42003;BME280;27693;50.506;30.832;2023-05-14T02:53:35;100369.28;;;17.19;39.99
42003;BME280;27693;50.506;30.832;2023-05-14T02:54:37;100368.34;;;17.20;40.19
42003;BME280;27693;50.506;30.832;2023-05-14T02:55:39;100374.75;;;17.16;40.19
42003;BME280;27693;50.506;30.832;2023-05-14T02:56:42;100371.08;;;17.18;40.14
42003;BME280;27693;50.506;30.832;2023-05-14T02:57:44;100364.95;;;17.18;40.51
42003;BME280;27693;50.506;30.832;2023-05-14T02:58:47;100371.91;;;17.19;40.67
42003;BME280;27693;50.506;30.832;2023-05-14T02:59:51;100379.05;;;17.17;40.71
42003;BME280;27693;50.506;30.832;2023-05-14T03:00:54;100368.73;;;17.14;40.91
42003;BME280;27693;50.506;30.832;2023-05-14T03:01:57;100373.06;;;17.15;40.77
42003;BME280;27693;50.506;30.832;2023-05-14T03:03:00;100365.17;;;17.15;40.97
42003;BME280;27693;50.506;30.832;2023-05-14T03:04:03;100370.97;;;17.20;40.76
42003;BME280;27693;50.506;30.832;2023-05-14T03:05:06;100376.78;;;17.25;40.86
42003;BME280;27693;50.506;30.832;2023-05-14T03:06:09;100367.53;;;17.05;41.30
42003;BME280;27693;50.506;30.832;2023-05-14T03:07:12;100367.53;;;17.05;41.30
42003;BME280;27693;50.506;30.832;2023-05-14T03:08:14;100371.38;;;16.99;41.38
42003;BME280;27693;50.506;30.832;2023-05-14T03:09:16;100371.48;;;16.98;41.75
42003;BME280;27693;50.506;30.832;2023-05-14T03:10:18;100371.38;;;16.99;41.62
42003;BME280;27693;50.506;30.832;2023-05-14T03:11:22;100368.65;;;17.01;41.55
42003;BME280;27693;50.506;30.832;2023-05-14T03:12:24;100370.07;;;16.92;41.75
42003;BME280;27693;50.506;30.832;2023-05-14T03:13:26;100367.16;;;16.97;41.87
42003;BME280;27693;50.506;30.832;2023-05-14T03:14:29;100369.41;;;17.03;41.86
42003;BME280;27693;50.506;30.832;2023-05-14T03:15:31;100371.00;;;17.05;41.86
42003;BME280;27693;50.506;30.832;2023-05-14T03:16:34;100373.63;;;17.05;42.07
42003;BME280;27693;50.506;30.832;2023-05-14T03:17:36;100376.46;;;17.02;42.24
42003;BME280;27693;50.506;30.832;2023-05-14T03:18:38;100368.00;;;16.97;42.41
42003;BME280;27693;50.506;30.832;2023-05-14T03:19:43;100374.11;;;16.98;42.60
42003;BME280;27693;50.506;30.832;2023-05-14T03:20:46;100378.33;;;17.00;42.60
42003;BME280;27693;50.506;30.832;2023-05-14T03:21:48;100375.98;;;16.96;42.88
42003;BME280;27693;50.506;30.832;2023-05-14T03:22:52;100377.02;;;16.93;42.98
42003;BME280;27693;50.506;30.832;2023-05-14T03:23:55;100378.20;;;16.87;43.12
42003;BME280;27693;50.506;30.832;2023-05-14T03:24:57;100370.59;;;16.83;43.00
42003;BME280;27693;50.506;30.832;2023-05-14T03:26:00;100372.30;;;16.84;43.01
42003;BME280;27693;50.506;30.832;2023-05-14T03:27:03;100370.05;;;16.77;43.08
42003;BME280;27693;50.506;30.832;2023-05-14T03:28:05;100373.33;;;16.81;42.76
42003;BME280;27693;50.506;30.832;2023-05-14T03:29:08;100372.50;;;16.81;42.35
42003;BME280;27693;50.506;30.832;2023-05-14T03:30:12;100367.03;;;16.84;42.74
42003;BME280;27693;50.506;30.832;2023-05-14T03:31:15;100364.12;;;16.88;42.45
42003;BME280;27693;50.506;30.832;2023-05-14T03:32:17;100367.59;;;16.89;42.52
42003;BME280;27693;50.506;30.832;2023-05-14T03:33:20;100372.52;;;16.95;42.50
42003;BME280;27693;50.506;30.832;2023-05-14T03:34:24;100364.25;;;17.01;42.36
42003;BME280;27693;50.506;30.832;2023-05-14T03:35:26;100371.00;;;17.05;42.30
42003;BME280;27693;50.506;30.832;2023-05-14T03:36:28;100370.81;;;17.08;42.14
42003;BME280;27693;50.506;30.832;2023-05-14T03:37:31;100370.61;;;17.12;42.41
42003;BME280;27693;50.506;30.832;2023-05-14T03:38:33;100370.81;;;17.08;41.83
42003;BME280;27693;50.506;30.832;2023-05-14T03:39:35;100365.35;;;17.12;41.63
42003;BME280;27693;50.506;30.832;2023-05-14T03:40:39;100371.91;;;17.19;42.38
42003;BME280;27693;50.506;30.832;2023-05-14T03:41:41;100371.73;;;17.22;42.39
42003;BME280;27693;50.506;30.832;2023-05-14T03:42:44;100375.08;;;17.24;41.91
42003;BME280;27693;50.506;30.832;2023-05-14T03:43:46;100367.02;;;17.27;42.03
42003;BME280;27693;50.506;30.832;2023-05-14T03:44:48;100368.60;;;17.30;42.12
42003;BME280;27693;50.506;30.832;2023-05-14T03:45:51;100362.12;;;17.35;42.41
42003;BME280;27693;50.506;30.832;2023-05-14T03:46:54;100364.39;;;17.27;42.49
42003;BME280;27693;50.506;30.832;2023-05-14T03:47:56;100366.08;;;17.28;41.95
42003;BME280;27693;50.506;30.832;2023-05-14T03:48:59;100367.77;;;17.29;42.30
42003;BME280;27693;50.506;30.832;2023-05-14T03:50:02;100370.30;;;17.31;42.10
42003;BME280;27693;50.506;30.832;2023-05-14T03:51:05;100363.99;;;17.33;42.09
42003;BME280;27693;50.506;30.832;2023-05-14T03:52:09;100369.25;;;17.33;42.10
42003;BME280;27693;50.506;30.832;2023-05-14T03:53:12;100373.58;;;17.34;42.26
42003;BME280;27693;50.506;30.832;2023-05-14T03:54:15;100367.38;;;17.35;42.23
42003;BME280;27693;50.506;30.832;2023-05-14T03:55:19;100374.11;;;17.39;42.09
42003;BME280;27693;50.506;30.832;2023-05-14T03:56:21;100370.08;;;17.34;42.09
42003;BME280;27693;50.506;30.832;2023-05-14T03:57:23;100374.51;;;17.33;42.32
42003;BME280;27693;50.506;30.832;2023-05-14T03:58:25;100369.07;;;17.36;42.52
42003;BME280;27693;50.506;30.832;2023-05-14T03:59:28;100369.90;;;17.37;42.57
42003;BME280;27693;50.506;30.832;2023-05-14T04:00:30;100375.70;;;17.42;42.64
42003;BME280;27693;50.506;30.832;2023-05-14T04:01:34;100370.33;;;17.44;42.75
42003;BME280;27693;50.506;30.832;2023-05-14T04:02:36;100372.03;;;17.45;42.57
42003;BME280;27693;50.506;30.832;2023-05-14T04:03:39;100370.05;;;17.48;42.50
42003;BME280;27693;50.506;30.832;2023-05-14T04:04:43;100363.20;;;17.46;42.75
42003;BME280;27693;50.506;30.832;2023-05-14T04:05:45;100364.49;;;17.53;42.93
42003;BME280;27693;50.506;30.832;2023-05-14T04:06:48;100367.13;;;17.53;42.82
42003;BME280;27693;50.506;30.832;2023-05-14T04:07:50;100371.63;;;17.51;42.85
42003;BME280;27693;50.506;30.832;2023-05-14T04:08:54;100371.45;;;17.54;43.13
42003;BME280;27693;50.506;30.832;2023-05-14T04:09:56;100370.40;;;17.56;43.13
42003;BME280;27693;50.506;30.832;2023-05-14T04:11:01;100366.19;;;17.54;43.22
42003;BME280;27693;50.506;30.832;2023-05-14T04:12:05;100368.92;;;17.52;43.23
42003;BME280;27693;50.506;30.832;2023-05-14T04:13:08;100374.83;;;17.56;43.00
42003;BME280;27693;50.506;30.832;2023-05-14T04:14:13;100366.29;;;17.52;43.51
42003;BME280;27693;50.506;30.832;2023-05-14T04:15:18;100366.19;;;17.54;43.09
42003;BME280;27693;50.506;30.832;2023-05-14T04:16:21;100365.03;;;17.61;43.23
42003;BME280;27693;50.506;30.832;2023-05-14T04:17:24;100365.03;;;17.58;43.63
42003;BME280;27693;50.506;30.832;2023-05-14T04:18:27;100366.53;;;17.62;43.45
42003;BME280;27693;50.506;30.832;2023-05-14T04:19:29;100366.31;;;17.65;43.00
42003;BME280;27693;50.506;30.832;2023-05-14T04:20:32;100373.63;;;17.75;42.83
42003;BME280;27693;50.506;30.832;2023-05-14T04:21:34;100373.63;;;17.75;42.83
42003;BME280;27693;50.506;30.832;2023-05-14T04:22:36;100372.28;;;17.82;42.86
42003;BME280;27693;50.506;30.832;2023-05-14T04:23:40;100377.32;;;17.85;42.55
42003;BME280;27693;50.506;30.832;2023-05-14T04:24:42;100370.92;;;17.89;41.66
42003;BME280;27693;50.506;30.832;2023-05-14T04:25:45;100368.19;;;17.91;41.44
42003;BME280;27693;50.506;30.832;2023-05-14T04:26:47;100364.61;;;17.92;40.40
42003;BME280;27693;50.506;30.832;2023-05-14T04:27:50;100369.72;;;17.95;39.09
42003;BME280;27693;50.506;30.832;2023-05-14T04:28:52;100366.75;;;17.99;38.95
42003;BME280;27693;50.506;30.832;2023-05-14T04:29:54;100371.83;;;18.02;39.05
42003;BME280;27693;50.506;30.832;2023-05-14T04:30:57;100367.20;;;18.06;38.16
42003;BME280;27693;50.506;30.832;2023-05-14T04:32:00;100365.20;;;18.10;38.33
42003;BME280;27693;50.506;30.832;2023-05-14T04:33:02;100371.86;;;18.15;37.67
42003;BME280;27693;50.506;30.832;2023-05-14T04:34:06;100359.08;;;18.09;37.92
42003;BME280;27693;50.506;30.832;2023-05-14T04:35:08;100364.80;;;18.16;37.47
42003;BME280;27693;50.506;30.832;2023-05-14T04:36:11;100367.23;;;18.19;37.63
42003;BME280;27693;50.506;30.832;2023-05-14T04:37:13;100368.89;;;18.20;37.44
42003;BME280;27693;50.506;30.832;2023-05-14T04:38:15;100365.31;;;18.21;37.38
42003;BME280;27693;50.506;30.832;2023-05-14T04:39:19;100358.16;;;18.23;37.42
42003;BME280;27693;50.506;30.832;2023-05-14T04:40:21;100367.76;;;18.24;37.44
42003;BME280;27693;50.506;30.832;2023-05-14T04:41:24;100364.90;;;18.27;37.47
42003;BME280;27693;50.506;30.832;2023-05-14T04:42:26;100367.34;;;18.30;37.63
42003;BME280;27693;50.506;30.832;2023-05-14T04:43:29;100364.48;;;18.33;37.38
42003;BME280;27693;50.506;30.832;2023-05-14T04:44:35;100367.86;;;18.35;37.80
42003;BME280;27693;50.506;30.832;2023-05-14T04:45:39;100369.66;;;18.35;37.63
42003;BME280;27693;50.506;30.832;2023-05-14T04:46:42;100369.55;;;18.36;37.66
42003;BME280;27693;50.506;30.832;2023-05-14T04:47:45;100374.62;;;18.40;37.36
42003;BME280;27693;50.506;30.832;2023-05-14T04:48:47;100367.66;;;18.39;37.32
42003;BME280;27693;50.506;30.832;2023-05-14T04:49:51;100370.19;;;18.40;37.56
42003;BME280;27693;50.506;30.832;2023-05-14T04:50:53;100372.70;;;18.42;36.73
42003;BME280;27693;50.506;30.832;2023-05-14T04:51:55;100374.40;;;18.43;37.04
42003;BME280;27693;50.506;30.832;2023-05-14T04:52:57;100380.41;;;18.45;36.85
42003;BME280;27693;50.506;30.832;2023-05-14T04:54:00;100372.28;;;18.48;36.61
42003;BME280;27693;50.506;30.832;2023-05-14T04:55:02;100374.84;;;18.49;36.40
42003;BME280;27693;50.506;30.832;2023-05-14T04:56:06;100373.97;;;18.49;36.54
42003;BME280;27693;50.506;30.832;2023-05-14T04:57:08;100378.19;;;18.51;36.50
42003;BME280;27693;50.506;30.832;2023-05-14T04:58:10;100377.55;;;18.48;36.33
42003;BME280;27693;50.506;30.832;2023-05-14T04:59:13;100378.30;;;18.50;36.58
42003;BME280;27693;50.506;30.832;2023-05-14T05:00:16;100379.99;;;18.51;36.49
42003;BME280;27693;50.506;30.832;2023-05-14T05:01:18;100376.61;;;18.49;36.43
42003;BME280;27693;50.506;30.832;2023-05-14T05:02:21;100381.88;;;18.49;36.63
42003;BME280;27693;50.506;30.832;2023-05-14T05:03:23;100376.41;;;18.52;36.31
42003;BME280;27693;50.506;30.832;2023-05-14T05:04:26;100379.87;;;18.52;36.15
42003;BME280;27693;50.506;30.832;2023-05-14T05:05:29;100375.66;;;18.50;36.13
42003;BME280;27693;50.506;30.832;2023-05-14T05:06:31;100379.05;;;18.52;36.13
42003;BME280;27693;50.506;30.832;2023-05-14T05:07:34;100375.47;;;18.53;36.22
42003;BME280;27693;50.506;30.832;2023-05-14T05:08:37;100369.22;;;18.54;36.60
42003;BME280;27693;50.506;30.832;2023-05-14T05:09:39;100382.20;;;18.57;36.57
42003;BME280;27693;50.506;30.832;2023-05-14T05:10:42;100374.18;;;18.59;36.16
42003;BME280;27693;50.506;30.832;2023-05-14T05:11:44;100380.31;;;18.59;36.37
42003;BME280;27693;50.506;30.832;2023-05-14T05:12:46;100378.39;;;18.61;36.16
42003;BME280;27693;50.506;30.832;2023-05-14T05:13:49;100375.67;;;18.63;36.41
42003;BME280;27693;50.506;30.832;2023-05-14T05:14:51;100374.38;;;18.68;36.39
42003;BME280;27693;50.506;30.832;2023-05-14T05:15:54;100392.75;;;18.70;35.95
42003;BME280;27693;50.506;30.832;2023-05-14T05:16:56;100375.95;;;18.71;36.07
42003;BME280;27693;50.506;30.832;2023-05-14T05:17:59;100384.50;;;18.75;36.16
42003;BME280;27693;50.506;30.832;2023-05-14T05:19:03;100379.02;;;18.78;36.24
42003;BME280;27693;50.506;30.832;2023-05-14T05:20:06;100371.95;;;18.78;36.42
42003;BME280;27693;50.506;30.832;2023-05-14T05:21:11;100378.80;;;18.81;36.40
42003;BME280;27693;50.506;30.832;2023-05-14T05:22:14;100379.02;;;18.78;35.86
42003;BME280;27693;50.506;30.832;2023-05-14T05:23:17;100372.06;;;18.77;35.46
42003;BME280;27693;50.506;30.832;2023-05-14T05:24:20;100378.28;;;18.76;35.38
42003;BME280;27693;50.506;30.832;2023-05-14T05:25:22;100379.22;;;18.75;35.18
42003;BME280;27693;50.506;30.832;2023-05-14T05:26:26;100376.59;;;18.75;35.41
42003;BME280;27693;50.506;30.832;2023-05-14T05:27:29;100374.81;;;18.75;35.39
42003;BME280;27693;50.506;30.832;2023-05-14T05:28:31;100381.34;;;18.70;34.50
42003;BME280;27693;50.506;30.832;2023-05-14T05:29:34;100381.34;;;18.70;34.50
42003;BME280;27693;50.506;30.832;2023-05-14T05:30:39;100383.23;;;18.67;34.36
42003;BME280;27693;50.506;30.832;2023-05-14T05:31:41;100377.97;;;18.67;34.83
42003;BME280;27693;50.506;30.832;2023-05-14T05:32:44;100372.49;;;18.71;34.76